Hlavní strana
METAR-TAF:

METAR-TAF

Letiště :

Ivalo, Finsko

zeměpisná šířka: 68-37N, zeměpisná délka: 027-25E, výška: 147 m

Aktuální stav počasí

Zpráva byla vytvořena před 16 minutami, v 01:20 UTC
Východoseverovýchodní vítr 4 kt
Teplota -20°C
Vlhkost vzduchu 84%
Tlak 1011 hPa
Viditelnost 10 km a více
Skoro jasno ve výšce 4700 ft
slabé sněhové přeháňky

METAR: EFIV 190120Z AUTO 06004KT 9999 -SHSN FEW047 M20/M22 Q1011

Čas: 03:36 (01:36 UTC)

Předpověď počasí

Zpráva byla vytvořena před 8 hodinami a 11 minutami, v 17:25 UTC
Předpověď platná od 18 v 18 UTC do 18 v 21 UTC
Severoseverovýchodní vítr 4 kt
Viditelnost 10 km a více
Žádná oblačnost pod 1500 m, nevyskytují se cumulonimby.

TAF: EFIV 181725Z 1818/1821 03004KT CAVOK

Stav a předpovědi počasí z více než 4 000 letišť (zprávy METAR a TAF).

Červené a žluté tečky na mapě představují dostupné meteorologické stanice.

Když kurzor umístíte na tečku, zobrazí se název stanice.

Pak kliknutím zobrazíte stav a předpověď počasí.

Chcete-li změnit mapu, kliknutím na zelené tlačítko se znaménkem +mapu přiblížíte, kliknutím na zelené tlačítko se znaménkem – mapu oddálíte a kliknutím na zelené šipky přejdete na sousední mapy.


METAR-TAF: